createdAt,value
2022-08-22T00:03:00.127Z,22.51
2022-08-22T00:03:18.599Z,23.15
2022-08-22T00:03:23.894Z,22.83
2022-08-22T00:04:21.357Z,21.22
2022-08-22T00:05:21.414Z,22.51
2022-08-22T00:06:21.505Z,22.19
2022-08-22T00:07:21.593Z,21.87
2022-08-22T00:08:21.668Z,22.51
2022-08-22T00:09:21.771Z,22.51
2022-08-22T00:10:25.046Z,22.19
2022-08-22T00:11:21.889Z,22.19
2022-08-22T00:12:21.973Z,22.51
2022-08-22T00:13:22.050Z,22.19
2022-08-22T00:14:22.143Z,22.83
2022-08-22T00:15:42.638Z,22.19
2022-08-22T00:16:22.360Z,22.19
2022-08-22T00:17:22.380Z,22.19
2022-08-22T00:18:22.479Z,22.19
2022-08-22T00:19:22.572Z,21.87
2022-08-22T00:20:28.043Z,22.19
2022-08-22T00:21:22.704Z,24.12
2022-08-22T00:22:22.791Z,22.51
2022-08-22T00:23:22.869Z,23.48
2022-08-22T00:24:22.958Z,21.87
2022-08-22T00:25:25.446Z,22.19
2022-08-22T00:26:23.129Z,21.87
2022-08-22T00:27:23.187Z,22.19
2022-08-22T00:28:23.271Z,22.51
2022-08-22T00:29:23.340Z,22.19
2022-08-22T00:30:23.401Z,22.83
2022-08-22T00:31:23.493Z,23.80
2022-08-22T00:32:23.577Z,22.51
2022-08-22T00:33:23.638Z,23.15
2022-08-22T00:34:23.743Z,22.19
2022-08-22T00:35:23.826Z,22.51
2022-08-22T00:36:23.876Z,21.22
2022-08-22T00:37:24.251Z,22.19
2022-08-22T00:38:24.025Z,22.19
2022-08-22T00:39:24.152Z,22.83
2022-08-22T00:40:24.192Z,21.87
2022-08-22T00:41:24.373Z,21.54
2022-08-22T00:42:31.454Z,21.87
2022-08-22T00:43:24.424Z,22.19
2022-08-22T00:44:24.527Z,22.19
2022-08-22T00:45:24.572Z,21.87
2022-08-22T00:46:24.677Z,21.87
2022-08-22T00:47:24.898Z,22.83
2022-08-22T00:48:24.855Z,23.15
2022-08-22T00:49:27.152Z,22.51
2022-08-22T00:50:24.973Z,21.87
2022-08-22T00:51:25.073Z,23.48
2022-08-22T00:52:25.151Z,23.48
2022-08-22T00:53:25.220Z,21.87
2022-08-22T00:54:25.294Z,22.83
2022-08-22T00:55:25.376Z,20.90
2022-08-22T00:56:25.522Z,22.83
2022-08-22T00:57:25.533Z,22.51
2022-08-22T00:58:25.602Z,22.51
2022-08-22T00:59:25.709Z,21.87
2022-08-22T01:00:25.767Z,23.15
2022-08-22T01:01:25.941Z,22.19
2022-08-22T01:02:25.935Z,22.83
2022-08-22T01:03:26.023Z,22.19
2022-08-22T01:04:26.102Z,22.83
2022-08-22T01:05:26.202Z,22.83
2022-08-22T01:06:26.274Z,21.87
2022-08-22T01:07:30.474Z,22.19
2022-08-22T01:08:26.469Z,22.51
2022-08-22T01:09:26.475Z,23.48
2022-08-22T01:10:26.611Z,22.19
2022-08-22T01:11:26.655Z,21.87
2022-08-22T01:12:26.704Z,20.58
2022-08-22T01:13:26.788Z,22.19
2022-08-22T01:14:34.827Z,21.22
2022-08-22T01:15:26.962Z,22.19
2022-08-22T01:16:27.045Z,22.19
2022-08-22T01:17:27.127Z,22.51
2022-08-22T01:18:27.215Z,20.90
2022-08-22T01:19:27.283Z,22.19
2022-08-22T01:20:27.360Z,22.19
2022-08-22T01:21:27.433Z,22.19
2022-08-22T01:22:27.505Z,21.87
2022-08-22T01:23:27.596Z,22.51
2022-08-22T01:24:27.644Z,21.87
2022-08-22T01:25:27.770Z,21.87
2022-08-22T01:26:27.830Z,22.83
2022-08-22T01:27:27.872Z,22.51
2022-08-22T01:28:28.000Z,22.83
2022-08-22T01:29:28.718Z,23.80
2022-08-22T01:30:28.124Z,22.83
2022-08-22T01:31:28.227Z,22.83
2022-08-22T01:32:28.308Z,23.15
2022-08-22T01:33:28.426Z,22.19
2022-08-22T01:34:28.457Z,22.51
2022-08-22T01:35:28.550Z,22.19
2022-08-22T01:36:28.618Z,21.87
2022-08-22T01:37:28.689Z,22.19
2022-08-22T01:38:28.784Z,20.90
2022-08-22T01:39:28.870Z,22.19
2022-08-22T01:40:28.928Z,21.87
2022-08-22T01:41:29.012Z,21.87
2022-08-22T01:42:29.092Z,21.54
2022-08-22T01:43:43.917Z,22.19
2022-08-22T01:44:29.263Z,22.19
2022-08-22T01:45:29.345Z,22.83
2022-08-22T01:46:29.422Z,21.87
2022-08-22T01:47:29.504Z,21.87
2022-08-22T01:48:29.601Z,22.19
2022-08-22T01:49:29.687Z,22.19
2022-08-22T01:50:29.767Z,21.87
2022-08-22T01:51:29.840Z,21.87
2022-08-22T01:52:29.919Z,22.19
2022-08-22T01:53:30.022Z,22.51
2022-08-22T01:54:30.044Z,22.83
2022-08-22T01:55:30.121Z,21.87
2022-08-22T01:56:30.207Z,21.54
2022-08-22T01:57:30.280Z,22.19
2022-08-22T01:58:30.381Z,21.87
2022-08-22T01:59:34.084Z,22.83
2022-08-22T02:00:35.035Z,21.87
2022-08-22T02:01:30.618Z,21.87
2022-08-22T02:02:30.711Z,21.87
2022-08-22T02:03:30.882Z,22.51
2022-08-22T02:04:30.896Z,21.54
2022-08-22T02:05:30.955Z,22.19
2022-08-22T02:06:31.044Z,21.22
2022-08-22T02:07:32.295Z,22.83
2022-08-22T02:08:31.209Z,22.19
2022-08-22T02:09:31.302Z,21.87
2022-08-22T02:10:31.383Z,22.51
2022-08-22T02:11:31.451Z,21.87
2022-08-22T02:12:31.541Z,22.19
2022-08-22T02:13:31.617Z,21.87
2022-08-22T02:14:31.717Z,22.19
2022-08-22T02:15:31.794Z,22.51
2022-08-22T02:16:31.877Z,21.54
2022-08-22T02:17:31.970Z,22.19
2022-08-22T02:18:32.064Z,21.87
2022-08-22T02:19:32.154Z,21.87
2022-08-22T02:20:32.228Z,19.93
2022-08-22T02:21:32.298Z,21.87
2022-08-22T02:22:32.424Z,22.19
2022-08-22T02:23:32.457Z,21.87
2022-08-22T02:24:32.540Z,21.54
2022-08-22T02:25:32.615Z,21.87
2022-08-22T02:26:32.700Z,22.83
2022-08-22T02:27:32.789Z,21.54
2022-08-22T02:28:32.875Z,21.87
2022-08-22T02:29:32.942Z,21.87
2022-08-22T02:30:33.034Z,22.51
2022-08-22T02:31:33.101Z,22.19
2022-08-22T02:32:33.211Z,22.51
2022-08-22T02:33:34.072Z,22.19
2022-08-22T02:34:33.327Z,21.87
2022-08-22T02:35:33.399Z,22.19
2022-08-22T02:36:33.486Z,21.54
2022-08-22T02:37:33.607Z,21.87
2022-08-22T02:38:33.657Z,21.87
2022-08-22T02:39:33.712Z,21.54
2022-08-22T02:40:33.810Z,22.19
2022-08-22T02:41:33.865Z,23.15
2022-08-22T02:42:33.963Z,22.83
2022-08-22T02:43:34.027Z,21.54
2022-08-22T02:44:34.116Z,21.87
2022-08-22T02:45:34.188Z,21.87
2022-08-22T02:46:34.253Z,22.19
2022-08-22T02:47:34.347Z,22.51
2022-08-22T02:48:34.426Z,24.12
2022-08-22T02:49:34.480Z,22.19
2022-08-22T02:50:34.568Z,22.51
2022-08-22T02:51:34.647Z,23.48
2022-08-22T02:52:34.748Z,21.54
2022-08-22T02:53:34.822Z,24.12
2022-08-22T02:54:34.879Z,21.87
2022-08-22T02:55:34.969Z,22.83
2022-08-22T02:56:35.047Z,21.87
2022-08-22T02:57:36.217Z,21.87
2022-08-22T02:58:35.233Z,21.87
2022-08-22T02:59:35.304Z,21.87
2022-08-22T03:00:35.428Z,22.83
2022-08-22T03:01:35.450Z,21.87
2022-08-22T03:02:35.554Z,22.19
2022-08-22T03:03:35.609Z,21.54
2022-08-22T03:04:35.693Z,21.87
2022-08-22T03:05:35.765Z,20.90
2022-08-22T03:06:35.846Z,23.15
2022-08-22T03:07:35.956Z,22.19
2022-08-22T03:08:36.029Z,20.58
2022-08-22T03:09:36.112Z,21.54
2022-08-22T03:10:36.205Z,22.83
2022-08-22T03:11:36.285Z,21.87
2022-08-22T03:12:36.382Z,22.19
2022-08-22T03:13:36.451Z,22.19
2022-08-22T03:14:36.537Z,21.87
2022-08-22T03:15:36.624Z,20.58
2022-08-22T03:16:36.721Z,22.19
2022-08-22T03:17:36.793Z,21.54
2022-08-22T03:18:36.872Z,21.87
2022-08-22T03:19:36.970Z,21.87
2022-08-22T03:20:37.055Z,22.19
2022-08-22T03:21:37.126Z,21.87
2022-08-22T03:22:37.252Z,21.54
2022-08-22T03:23:37.294Z,21.22
2022-08-22T03:24:37.376Z,22.19
2022-08-22T03:25:37.454Z,21.54
2022-08-22T03:26:37.543Z,21.87
2022-08-22T03:27:37.657Z,21.87
2022-08-22T03:28:37.713Z,23.80
2022-08-22T03:29:37.788Z,22.83
2022-08-22T03:30:37.890Z,22.51
2022-08-22T03:31:37.955Z,22.83
2022-08-22T03:32:38.049Z,21.87
2022-08-22T03:33:38.089Z,20.90
2022-08-22T03:34:38.188Z,22.19
2022-08-22T03:35:38.243Z,21.54
2022-08-22T03:36:38.353Z,22.19
2022-08-22T03:37:38.431Z,22.19
2022-08-22T03:38:38.474Z,21.87
2022-08-22T03:39:38.588Z,21.54
2022-08-22T03:40:38.622Z,21.54
2022-08-22T03:41:38.722Z,21.87
2022-08-22T03:42:38.800Z,22.19
2022-08-22T03:43:38.863Z,21.54
2022-08-22T03:44:38.950Z,23.15
2022-08-22T03:45:39.024Z,21.87
2022-08-22T03:46:39.109Z,20.90
2022-08-22T03:47:39.168Z,21.87
2022-08-22T03:48:39.261Z,21.22
2022-08-22T03:49:39.327Z,21.87
2022-08-22T03:50:39.416Z,22.19
2022-08-22T03:51:39.494Z,23.80
2022-08-22T03:52:39.573Z,21.22
2022-08-22T03:53:39.659Z,21.87
2022-08-22T03:54:39.766Z,22.19
2022-08-22T03:55:39.849Z,21.54
2022-08-22T03:56:39.911Z,22.19
2022-08-22T03:57:39.980Z,22.19
2022-08-22T03:58:40.050Z,20.90
2022-08-22T03:59:42.583Z,21.87
2022-08-22T04:00:40.226Z,21.54
2022-08-22T04:01:40.281Z,21.87
2022-08-22T04:02:43.817Z,23.15
2022-08-22T04:03:40.454Z,21.87
2022-08-22T04:04:40.535Z,20.58
2022-08-22T04:05:40.595Z,22.19
2022-08-22T04:06:40.732Z,21.54
2022-08-22T04:07:40.770Z,22.19
2022-08-22T04:08:43.862Z,21.22
2022-08-22T04:09:40.921Z,21.87
2022-08-22T04:10:40.988Z,21.87
2022-08-22T04:11:41.107Z,21.54
2022-08-22T04:12:41.156Z,22.19
2022-08-22T04:13:41.222Z,21.87
2022-08-22T04:14:41.336Z,21.87
2022-08-22T04:15:41.391Z,21.54
2022-08-22T04:16:41.489Z,22.19
2022-08-22T04:17:41.541Z,22.19
2022-08-22T04:18:41.616Z,22.19
2022-08-22T04:19:41.694Z,21.54
2022-08-22T04:20:41.873Z,21.54
2022-08-22T04:21:41.886Z,22.51
2022-08-22T04:22:41.962Z,21.87
2022-08-22T04:23:42.035Z,21.54
2022-08-22T04:24:42.110Z,22.51
2022-08-22T04:25:42.172Z,22.19
2022-08-22T04:26:42.285Z,22.51
2022-08-22T04:27:42.347Z,21.87
2022-08-22T04:28:42.411Z,22.19
2022-08-22T04:29:42.504Z,22.19
2022-08-22T04:30:42.621Z,22.19
2022-08-22T04:31:42.644Z,22.83
2022-08-22T04:32:42.740Z,21.54
2022-08-22T04:33:42.813Z,22.51
2022-08-22T04:34:42.891Z,22.19
2022-08-22T04:35:42.980Z,22.19
2022-08-22T04:36:43.071Z,22.19
2022-08-22T04:37:43.121Z,22.19
2022-08-22T04:38:43.204Z,22.51
2022-08-22T04:39:43.307Z,22.19
2022-08-22T04:40:43.408Z,24.12
2022-08-22T04:41:43.463Z,20.90
2022-08-22T04:42:43.619Z,22.19
2022-08-22T04:43:43.625Z,22.19
2022-08-22T04:44:43.730Z,21.87
2022-08-22T04:45:43.858Z,21.87
2022-08-22T04:46:43.874Z,21.87
2022-08-22T04:47:43.963Z,22.51
2022-08-22T04:48:44.042Z,21.87
2022-08-22T04:49:44.180Z,21.87
2022-08-22T04:50:44.290Z,21.87
2022-08-22T04:51:44.347Z,20.58
2022-08-22T04:52:44.398Z,21.54
2022-08-22T04:53:44.557Z,22.83
2022-08-22T04:54:44.633Z,21.54
2022-08-22T04:55:44.698Z,21.87
2022-08-22T04:56:44.750Z,21.87
2022-08-22T04:57:44.761Z,22.51
2022-08-22T04:58:44.989Z,21.87
2022-08-22T04:59:44.919Z,22.51
2022-08-22T05:00:45.103Z,21.87
2022-08-22T05:01:45.277Z,20.25
2022-08-22T05:02:45.120Z,21.54
2022-08-22T05:03:45.198Z,21.22
2022-08-22T05:04:45.274Z,21.87
2022-08-22T05:05:45.382Z,21.54
2022-08-22T05:06:45.457Z,21.54
2022-08-22T05:07:45.499Z,22.19
2022-08-22T05:08:45.624Z,21.54
2022-08-22T05:09:45.679Z,21.22
2022-08-22T05:10:45.766Z,21.54
2022-08-22T05:11:45.827Z,20.58
2022-08-22T05:12:45.940Z,21.54
2022-08-22T05:13:45.992Z,21.87
2022-08-22T05:14:46.110Z,21.22
2022-08-22T05:15:46.171Z,22.83
2022-08-22T05:16:46.257Z,21.54
2022-08-22T05:17:46.343Z,21.54
2022-08-22T05:18:46.438Z,22.19
2022-08-22T05:19:46.507Z,21.22
2022-08-22T05:20:46.602Z,21.87
2022-08-22T05:21:46.680Z,22.51
2022-08-22T05:22:46.789Z,21.87
2022-08-22T05:23:46.829Z,21.87
2022-08-22T05:24:46.961Z,20.90
2022-08-22T05:25:47.005Z,21.87
2022-08-22T05:26:47.122Z,21.87
2022-08-22T05:27:47.157Z,22.19
2022-08-22T05:28:51.309Z,21.54
2022-08-22T05:29:47.362Z,21.54
2022-08-22T05:30:47.396Z,22.51
2022-08-22T05:31:47.515Z,20.25
2022-08-22T05:32:47.530Z,22.19
2022-08-22T05:33:47.606Z,22.83
2022-08-22T05:34:47.714Z,21.87
2022-08-22T05:35:50.760Z,21.87
2022-08-22T05:36:47.838Z,21.22
2022-08-22T05:37:47.921Z,22.51
2022-08-22T05:38:47.983Z,21.54
2022-08-22T05:39:48.127Z,20.25
2022-08-22T05:40:48.147Z,22.51
2022-08-22T05:41:48.215Z,21.54
2022-08-22T05:42:48.271Z,22.19
2022-08-22T05:43:48.368Z,22.83
2022-08-22T05:44:48.470Z,21.87
2022-08-22T05:45:48.518Z,22.51
2022-08-22T05:46:48.606Z,22.83
2022-08-22T05:47:48.667Z,22.51
2022-08-22T05:48:48.749Z,20.90
2022-08-22T05:49:48.851Z,22.51
2022-08-22T05:50:50.982Z,21.54
2022-08-22T05:51:48.998Z,21.87
2022-08-22T05:52:49.078Z,21.22
2022-08-22T05:53:49.164Z,22.51
2022-08-22T05:54:49.324Z,22.83
2022-08-22T05:55:49.331Z,22.19
2022-08-22T05:56:49.428Z,22.51
2022-08-22T05:57:49.492Z,21.87
2022-08-22T05:58:49.589Z,22.83
2022-08-22T05:59:49.703Z,22.51
2022-08-22T06:00:49.714Z,22.19
2022-08-22T06:01:49.818Z,22.83
2022-08-22T06:02:49.880Z,21.54
2022-08-22T06:03:49.959Z,22.19
2022-08-22T06:04:50.046Z,21.87
2022-08-22T06:05:50.118Z,22.83
2022-08-22T06:06:50.205Z,22.51
2022-08-22T06:07:50.305Z,22.51
2022-08-22T06:08:50.421Z,22.51
2022-08-22T06:09:50.438Z,22.51
2022-08-22T06:10:50.533Z,22.51
2022-08-22T06:11:51.964Z,24.12
2022-08-22T06:12:50.690Z,22.83
2022-08-22T06:13:50.763Z,22.51
2022-08-22T06:14:50.848Z,22.83
2022-08-22T06:15:50.902Z,22.19
2022-08-22T06:16:50.974Z,23.15
2022-08-22T06:17:51.058Z,22.51
2022-08-22T06:18:51.136Z,22.51
2022-08-22T06:19:51.210Z,22.83
2022-08-22T06:20:51.304Z,22.83
2022-08-22T06:21:51.714Z,23.15
2022-08-22T06:22:51.438Z,22.83
2022-08-22T06:23:51.551Z,24.12
2022-08-22T06:24:51.618Z,22.51
2022-08-22T06:25:51.674Z,23.15
2022-08-22T06:26:51.760Z,22.83
2022-08-22T06:27:51.894Z,22.83
2022-08-22T06:28:55.339Z,23.15
2022-08-22T06:29:52.008Z,23.15
2022-08-22T06:30:52.144Z,24.12
2022-08-22T06:31:52.147Z,23.15
2022-08-22T06:33:00.132Z,23.80
2022-08-22T06:33:52.359Z,25.09
2022-08-22T06:34:52.409Z,24.12
2022-08-22T06:35:52.464Z,23.80
2022-08-22T06:36:52.551Z,23.15
2022-08-22T06:37:52.663Z,25.41
2022-08-22T06:38:52.721Z,23.15
2022-08-22T06:39:52.838Z,23.80
2022-08-22T06:40:52.857Z,23.80
2022-08-22T06:41:52.930Z,23.48
2022-08-22T06:42:52.985Z,24.77
2022-08-22T06:43:53.117Z,24.12
2022-08-22T06:44:53.142Z,24.44
2022-08-22T06:45:53.222Z,25.09
2022-08-22T06:46:53.310Z,25.41
2022-08-22T06:47:53.764Z,24.77
2022-08-22T06:48:53.478Z,25.73
2022-08-22T06:49:53.610Z,26.05
2022-08-22T06:50:53.624Z,26.70
2022-08-22T06:51:53.700Z,25.41
2022-08-22T06:52:53.776Z,25.09
2022-08-22T06:53:53.880Z,27.34
2022-08-22T06:54:53.925Z,26.38
2022-08-22T06:55:54.011Z,25.73
2022-08-22T06:56:54.103Z,26.70
2022-08-22T06:57:54.215Z,27.02
2022-08-22T06:58:54.239Z,26.70
2022-08-22T06:59:54.329Z,28.31
2022-08-22T07:01:05.762Z,27.34
2022-08-22T07:01:54.581Z,28.63
2022-08-22T07:02:54.573Z,27.67
2022-08-22T07:03:54.671Z,26.38
2022-08-22T07:04:54.712Z,28.31
2022-08-22T07:05:54.818Z,28.31
2022-08-22T07:06:54.887Z,28.31
2022-08-22T07:07:55.016Z,27.99
2022-08-22T07:08:55.083Z,28.31
2022-08-22T07:09:55.156Z,28.63
2022-08-22T07:10:55.210Z,27.99
2022-08-22T07:11:55.295Z,27.67
2022-08-22T07:12:55.390Z,28.31
2022-08-22T07:13:55.459Z,27.99
2022-08-22T07:14:55.559Z,27.67
2022-08-22T07:15:56.347Z,27.34
2022-08-22T07:16:55.725Z,26.05
2022-08-22T07:17:55.874Z,27.67
2022-08-22T07:18:55.855Z,26.70
2022-08-22T07:19:55.948Z,26.70
2022-08-22T07:20:56.019Z,26.38
2022-08-22T07:21:56.123Z,26.38
2022-08-22T07:22:56.204Z,26.38
2022-08-22T07:23:56.249Z,26.38
2022-08-22T07:24:56.330Z,25.41
2022-08-22T07:25:56.433Z,25.73
2022-08-22T07:26:56.505Z,25.09
2022-08-22T07:27:56.629Z,25.73
2022-08-22T07:28:58.741Z,25.41
2022-08-22T07:29:56.710Z,25.41
2022-08-22T07:30:56.798Z,25.09
2022-08-22T07:31:56.896Z,25.41
2022-08-22T07:32:56.961Z,26.05
2022-08-22T07:33:57.047Z,25.73
2022-08-22T07:34:57.107Z,25.73
2022-08-22T07:35:57.212Z,25.73
2022-08-22T07:36:57.315Z,26.05
2022-08-22T07:37:57.366Z,26.38
2022-08-22T07:38:57.409Z,27.34
2022-08-22T07:39:57.517Z,26.70
2022-08-22T07:40:57.569Z,27.99
2022-08-22T07:41:57.674Z,27.34
2022-08-22T07:42:57.748Z,27.99
2022-08-22T07:43:57.840Z,27.34
2022-08-22T07:44:57.867Z,27.34
2022-08-22T07:45:57.951Z,27.99
2022-08-22T07:46:58.025Z,27.99
2022-08-22T07:47:58.150Z,28.63
2022-08-22T07:49:13.304Z,27.99
2022-08-22T07:49:58.269Z,28.31
2022-08-22T07:50:58.338Z,28.96
2022-08-22T07:51:58.428Z,28.63
2022-08-22T07:52:58.504Z,29.28
2022-08-22T07:54:00.849Z,29.92
2022-08-22T07:54:58.671Z,30.89
2022-08-22T07:55:58.780Z,29.28
2022-08-22T07:56:58.831Z,28.63
2022-08-22T07:57:59.158Z,29.92
2022-08-22T07:58:58.988Z,30.89
2022-08-22T07:59:59.064Z,31.21
2022-08-22T08:00:59.247Z,31.53
2022-08-22T08:01:59.225Z,31.21
2022-08-22T08:02:59.290Z,31.53
2022-08-22T08:03:59.377Z,30.57
2022-08-22T08:04:59.450Z,31.21
2022-08-22T08:05:59.548Z,31.86
2022-08-22T08:06:59.636Z,31.53
2022-08-22T08:07:59.903Z,32.18
2022-08-22T08:08:59.809Z,32.18
2022-08-22T08:09:59.919Z,32.18
2022-08-22T08:11:00.061Z,32.18
2022-08-22T08:12:00.062Z,32.18
2022-08-22T08:13:02.824Z,32.50
2022-08-22T08:14:00.250Z,32.82
2022-08-22T08:15:00.296Z,32.18
2022-08-22T08:16:00.349Z,33.79
2022-08-22T08:17:00.453Z,32.82
2022-08-22T08:18:00.761Z,32.50
2022-08-22T08:19:00.599Z,32.82
2022-08-22T08:20:00.680Z,32.50
2022-08-22T08:21:00.740Z,33.79
2022-08-22T08:22:00.825Z,32.50
2022-08-22T08:23:00.924Z,32.82
2022-08-22T08:24:01.009Z,32.82
2022-08-22T08:25:01.085Z,32.18
2022-08-22T08:26:01.161Z,32.18
2022-08-22T08:27:01.227Z,32.82
2022-08-22T08:28:01.395Z,32.82
2022-08-22T08:29:01.411Z,31.86
2022-08-22T08:30:01.460Z,31.86
2022-08-22T08:31:01.569Z,32.50
2022-08-22T08:32:01.642Z,32.82
2022-08-22T08:33:25.069Z,32.82
2022-08-22T08:34:01.800Z,32.18
2022-08-22T08:35:01.928Z,32.50
2022-08-22T08:36:03.929Z,32.82
2022-08-22T08:37:02.055Z,32.82
2022-08-22T08:38:02.139Z,32.82
2022-08-22T08:39:02.207Z,33.47
2022-08-22T08:40:02.411Z,33.14
2022-08-22T08:41:02.387Z,32.50
2022-08-22T08:42:02.482Z,32.82
2022-08-22T08:43:02.568Z,33.79
2022-08-22T08:44:02.652Z,33.79
2022-08-22T08:45:02.729Z,33.79
2022-08-22T08:46:02.819Z,33.47
2022-08-22T08:47:02.889Z,34.11
2022-08-22T08:48:02.985Z,33.79
2022-08-22T08:49:06.458Z,34.11
2022-08-22T08:50:03.128Z,35.08
2022-08-22T08:51:03.195Z,35.08
2022-08-22T08:52:03.256Z,34.43
2022-08-22T08:53:03.342Z,34.76
2022-08-22T08:54:03.471Z,34.43
2022-08-22T08:55:15.965Z,36.04
2022-08-22T08:56:03.655Z,33.79
2022-08-22T08:57:03.699Z,35.40
2022-08-22T08:58:07.112Z,34.76
2022-08-22T08:59:03.888Z,35.40
2022-08-22T09:00:03.976Z,35.40
2022-08-22T09:01:04.127Z,34.76
2022-08-22T09:02:04.127Z,36.37
2022-08-22T09:03:06.988Z,35.08
2022-08-22T09:04:04.268Z,35.08
2022-08-22T09:05:04.338Z,35.40
2022-08-22T09:06:04.492Z,34.76
2022-08-22T09:07:04.526Z,36.04
2022-08-22T09:08:04.601Z,34.43
2022-08-22T09:09:04.712Z,35.72
2022-08-22T09:10:04.753Z,35.72
2022-08-22T09:11:09.911Z,35.08
2022-08-22T09:12:04.967Z,35.40
2022-08-22T09:13:12.196Z,35.72
2022-08-22T09:14:05.099Z,35.72
2022-08-22T09:15:05.166Z,34.76
2022-08-22T09:16:05.588Z,35.72
2022-08-22T09:17:05.314Z,35.40
2022-08-22T09:18:05.421Z,35.72
2022-08-22T09:19:05.468Z,38.30
2022-08-22T09:20:18.009Z,34.11
2022-08-22T09:21:05.652Z,35.40
2022-08-22T09:22:05.727Z,35.08
2022-08-22T09:23:05.800Z,35.08
2022-08-22T09:24:05.879Z,34.43
2022-08-22T09:25:06.128Z,35.40
2022-08-22T09:26:06.072Z,35.72
2022-08-22T09:27:08.596Z,34.76
2022-08-22T09:28:06.212Z,34.43
2022-08-22T09:29:06.290Z,34.76
2022-08-22T09:30:06.377Z,34.76
2022-08-22T09:31:21.836Z,34.43
2022-08-22T09:40:30.642Z,32.50
2022-08-22T09:41:30.732Z,33.79
2022-08-22T09:42:30.822Z,32.50
2022-08-22T09:43:30.926Z,32.82
2022-08-22T09:44:30.974Z,32.82
2022-08-22T09:45:31.097Z,32.82
2022-08-22T09:46:34.731Z,33.47
2022-08-22T09:47:31.306Z,33.14
2022-08-22T09:48:31.310Z,32.82
2022-08-22T09:49:31.378Z,33.79
2022-08-22T09:50:31.505Z,34.11
2022-08-22T09:51:33.132Z,33.14
2022-08-22T09:52:33.841Z,32.82
2022-08-22T09:53:31.696Z,32.82
2022-08-22T09:54:32.822Z,32.18
2022-08-22T09:55:35.272Z,32.82
2022-08-22T09:56:31.920Z,32.82
2022-08-22T09:57:32.014Z,32.50
2022-08-22T09:58:32.097Z,31.21
2022-08-22T09:59:33.700Z,32.50
2022-08-22T10:00:32.237Z,32.50
2022-08-22T10:01:32.847Z,32.50
2022-08-22T10:02:32.365Z,33.14
2022-08-22T10:03:32.481Z,32.50
2022-08-22T10:04:32.521Z,33.14
2022-08-22T10:05:40.913Z,31.86
2022-08-22T10:06:32.700Z,35.40
2022-08-22T10:07:32.775Z,32.50
2022-08-22T10:08:32.874Z,32.18
2022-08-22T10:09:32.931Z,32.50
2022-08-22T10:10:33.005Z,31.53
2022-08-22T10:11:33.081Z,32.18
2022-08-22T10:12:36.469Z,32.18
2022-08-22T10:13:34.154Z,32.82
2022-08-22T10:14:33.323Z,31.53
2022-08-22T10:15:33.403Z,32.18
2022-08-22T10:16:33.456Z,31.21
2022-08-22T10:17:33.590Z,31.21
2022-08-22T10:18:33.604Z,31.86
2022-08-22T10:19:33.683Z,31.21
2022-08-22T10:20:34.059Z,31.53
2022-08-22T10:21:33.866Z,31.53
2022-08-22T10:22:33.968Z,31.53
2022-08-22T10:23:34.028Z,30.57
2022-08-22T10:24:34.132Z,30.24
2022-08-22T10:25:34.211Z,31.21
2022-08-22T10:26:38.547Z,31.21
2022-08-22T10:27:34.387Z,30.89
2022-08-22T10:28:34.470Z,30.57
2022-08-22T10:29:34.583Z,31.21
2022-08-22T10:30:34.671Z,29.28
2022-08-22T10:31:34.720Z,30.24
2022-08-22T10:32:34.796Z,30.57
2022-08-22T10:33:34.899Z,29.92
2022-08-22T10:34:34.982Z,29.92
2022-08-22T10:35:35.088Z,30.89
2022-08-22T10:36:35.132Z,29.92
2022-08-22T10:37:35.201Z,30.24
2022-08-22T10:38:43.961Z,30.24
2022-08-22T10:39:35.393Z,29.92
2022-08-22T10:40:36.094Z,29.60
2022-08-22T10:41:35.538Z,29.92
2022-08-22T10:42:36.414Z,31.53
2022-08-22T10:43:35.709Z,29.28
2022-08-22T10:44:35.806Z,30.24
2022-08-22T10:45:37.043Z,30.24
2022-08-22T10:46:35.955Z,29.60
2022-08-22T10:47:36.018Z,29.92
2022-08-22T10:48:36.101Z,29.92
2022-08-22T10:49:36.220Z,29.60
2022-08-22T10:50:36.383Z,28.31
2022-08-22T10:51:36.774Z,30.24
2022-08-22T10:52:36.434Z,30.57
2022-08-22T10:53:36.519Z,29.28
2022-08-22T10:54:36.576Z,28.31
2022-08-22T10:55:36.845Z,28.63
2022-08-22T10:56:36.740Z,29.28
2022-08-22T10:57:36.859Z,28.63
2022-08-22T10:58:36.914Z,29.28
2022-08-22T10:59:37.056Z,29.60
2022-08-22T11:00:37.133Z,28.96
2022-08-22T11:01:42.030Z,28.96
2022-08-22T11:02:37.236Z,29.92
2022-08-22T11:03:37.836Z,28.96
2022-08-22T11:04:37.397Z,29.60
2022-08-22T11:05:37.474Z,28.63
2022-08-22T11:06:37.561Z,27.67
2022-08-22T11:07:37.646Z,29.60
2022-08-22T11:08:37.800Z,28.63
2022-08-22T11:09:37.797Z,29.28
2022-08-22T11:10:37.873Z,28.31
2022-08-22T11:11:38.013Z,28.63
2022-08-22T11:12:41.747Z,27.34
2022-08-22T11:13:38.146Z,27.99
2022-08-22T11:14:38.207Z,28.63
2022-08-22T11:15:38.279Z,27.67
2022-08-22T11:16:41.611Z,26.70
2022-08-22T11:17:42.653Z,27.99
2022-08-22T11:18:38.517Z,28.96
2022-08-22T11:19:38.584Z,28.96
2022-08-22T11:20:38.665Z,27.99
2022-08-22T11:21:38.755Z,28.63
2022-08-22T11:22:38.824Z,27.99
2022-08-22T11:23:38.911Z,27.99
2022-08-22T11:24:55.906Z,28.63
2022-08-22T11:25:39.284Z,27.34
2022-08-22T11:26:47.237Z,27.67
2022-08-22T11:27:40.786Z,27.99
2022-08-22T11:28:39.311Z,27.67
2022-08-22T11:29:39.365Z,28.31
2022-08-22T11:30:45.235Z,28.31
2022-08-22T11:31:39.547Z,27.99
2022-08-22T11:32:39.632Z,27.34
2022-08-22T11:33:47.349Z,27.02
2022-08-22T11:34:39.762Z,27.34
2022-08-22T11:35:39.849Z,27.34
2022-08-22T11:36:39.933Z,27.99
2022-08-22T11:37:42.156Z,27.34
2022-08-22T11:38:40.113Z,27.99
2022-08-22T11:39:40.229Z,27.34
2022-08-22T11:40:40.288Z,27.99
2022-08-22T11:41:40.334Z,27.34
2022-08-22T11:42:47.387Z,27.67
2022-08-22T11:43:40.523Z,27.34
2022-08-22T11:44:50.689Z,28.31
2022-08-22T11:45:40.669Z,27.02
2022-08-22T11:46:40.761Z,27.99
2022-08-22T11:47:40.846Z,27.67
2022-08-22T11:48:40.957Z,27.67
2022-08-22T11:49:41.047Z,27.99
2022-08-22T11:50:42.149Z,26.38
2022-08-22T11:51:41.202Z,27.67
2022-08-22T11:52:41.305Z,27.67
2022-08-22T11:53:41.350Z,27.02
2022-08-22T11:54:42.077Z,27.02
2022-08-22T11:55:41.502Z,27.34
2022-08-22T11:56:41.780Z,27.34
2022-08-22T11:57:44.203Z,27.67
2022-08-22T11:58:41.751Z,27.34
2022-08-22T11:59:43.216Z,27.02
2022-08-22T12:00:41.960Z,26.70
2022-08-22T12:01:42.005Z,27.67
2022-08-22T12:02:42.107Z,27.34
2022-08-22T12:03:42.100Z,27.67
2022-08-22T12:04:42.639Z,27.67
2022-08-22T12:05:42.286Z,27.99
2022-08-22T12:06:42.330Z,29.60
2022-08-22T12:07:44.438Z,26.70
2022-08-22T12:08:42.518Z,28.96
2022-08-22T12:09:42.585Z,27.02
2022-08-22T12:10:42.653Z,28.96
2022-08-22T12:11:42.759Z,27.67
2022-08-22T12:12:42.876Z,28.96
2022-08-22T12:13:42.919Z,27.34
2022-08-22T12:14:42.994Z,27.34
2022-08-22T12:15:43.107Z,27.02
2022-08-22T12:16:45.006Z,27.34
2022-08-22T12:17:55.972Z,27.67
2022-08-22T12:18:43.346Z,27.02
2022-08-22T12:20:05.604Z,27.67
2022-08-22T12:20:45.577Z,27.67
2022-08-22T12:21:43.573Z,27.34
2022-08-22T12:22:49.703Z,27.02
2022-08-22T12:23:49.085Z,26.70
2022-08-22T12:24:43.821Z,27.02
2022-08-22T12:25:44.560Z,26.70
2022-08-22T12:26:43.984Z,26.70
2022-08-22T12:27:48.585Z,27.67
2022-08-22T12:28:44.149Z,27.34
2022-08-22T12:29:44.901Z,26.70
2022-08-22T12:30:44.311Z,26.05
2022-08-22T12:31:44.392Z,26.70
2022-08-22T12:32:45.728Z,26.70
2022-08-22T12:33:44.566Z,27.02
2022-08-22T12:34:44.647Z,26.05
2022-08-22T12:35:44.735Z,26.70
2022-08-22T12:36:44.809Z,26.05
2022-08-22T12:38:03.620Z,26.38
2022-08-22T12:38:44.983Z,28.31
2022-08-22T12:39:45.093Z,26.38
2022-08-22T12:40:45.132Z,27.02
2022-08-22T12:41:46.723Z,26.38
2022-08-22T12:42:46.201Z,27.02
2022-08-22T12:43:45.335Z,26.38
2022-08-22T12:44:45.434Z,26.70
2022-08-22T12:45:45.503Z,26.70
2022-08-22T12:46:47.433Z,27.34
2022-08-22T12:47:45.693Z,26.70
2022-08-22T12:48:45.804Z,26.70
2022-08-22T12:49:52.255Z,26.70
2022-08-22T12:50:45.943Z,26.38
2022-08-22T12:51:46.760Z,27.34
2022-08-22T12:52:46.086Z,26.38
2022-08-22T12:53:46.160Z,26.38
2022-08-22T12:54:46.256Z,26.70
2022-08-22T12:55:46.315Z,26.38
2022-08-22T12:56:47.434Z,26.05
2022-08-22T12:57:50.491Z,26.38
2022-08-22T12:58:46.563Z,26.05
2022-08-22T12:59:46.638Z,26.05
2022-08-22T13:00:46.745Z,26.38
2022-08-22T13:01:46.848Z,26.05
2022-08-22T13:02:46.890Z,26.38